• Join FlightAware (Why Join?)
  • Login
  • US Flag 
01:00PM EDT


 

Airport Tracker/Info


-or-


 

Live Flight TrackerFlight Track Log ✈ N717AN ✈ 22-Jul-2013 ✈ KDFW - EGLL / LHR

Flight Track Log - Related Links

Times and Time Zones

All times are in EDT time to prevent confusion due to time zone crossing. See the N717AN flight status page for this flight to view local times or setup timezone preferences in your user account.

Time Position Orientation Groundspeed Altitude Reporting Facility
EDT Latitude Longitude Course Direction KTS MPH feet Rate Location/Type
07:02PM 32.8530 -97.0240 163° South 191 220 2,400  Level FlightAware
07:03PM 32.8230 -97.0130 163° South 236 272 2,800 1,500 Climbing FlightAware
07:03PM 32.7950 -97.0030 163° South 256 295 3,800 2,460 Climbing FlightAware
07:04PM 32.7620 -96.9910 163° South 262 302 5,100 2,580 Climbing FlightAware
07:04PM 32.7320 -96.9780 160° South 268 308 6,200 2,520 Climbing FlightAware
07:04PM 32.7190 -96.9620 134° Southeast 279 321 6,800 2,160 Climbing FlightAware
07:05PM 32.7130 -96.9390 107° East 290 334 7,300 2,220 Climbing FlightAware
07:05PM 32.7230 -96.8920 76° East 307 353 8,500 2,400 Climbing FlightAware
07:05PM 32.7440 -96.8580 54° Northeast 312 359 9,500 1,620 Climbing FlightAware
07:06PM 32.7800 -96.8030 52° Northeast 324 373 10,300 1,200 Climbing FlightAware
07:07PM 32.8180 -96.7450 52° Northeast 362 417 11,100 1,260 Climbing FlightAware
07:07PM 32.8610 -96.6780 53° Northeast 396 456 12,000 1,800 Climbing FlightAware
07:08PM 32.9120 -96.5990 52° Northeast 411 473 13,600 2,220 Climbing FlightAware
07:09PM 32.9550 -96.5320 53° Northeast 419 482 15,100 2,220 Climbing FlightAware
07:09PM 33.0010 -96.4590 53° Northeast 428 493 16,500 2,280 Climbing FlightAware
07:10PM 33.0530 -96.3790 52° Northeast 431 496 18,200 2,100 Climbing FlightAware
07:11PM 33.0930 -96.2960 60° Northeast 444 511 19,400 1,920 Climbing FlightAware
07:11PM 33.1190 -96.2130 69° East 454 522 20,600 1,740 Climbing FlightAware
07:12PM 33.1500 -96.1040 71° East 466 536 21,800 1,680 Climbing FlightAware
07:13PM 33.1780 -96.0090 71° East 471 542 23,000 1,740 Climbing FlightAware
07:14PM 33.2110 -95.8950 71° East 478 550 24,300 1,500 Climbing FlightAware
07:14PM 33.2410 -95.7940 70° East 489 563 25,200 1,320 Climbing FlightAware
07:15PM 33.2710 -95.6920 71° East 497 572 26,100 1,380 Climbing FlightAware
07:16PM 33.3040 -95.5770 71° East 504 580 27,200 1,440 Climbing FlightAware
07:16PM 33.3330 -95.4800 70° East 510 587 28,100 1,440 Climbing FlightAware
07:17PM 33.3630 -95.3760 71° East 516 594 29,000 1,320 Climbing FlightAware
07:18PM 33.3980 -95.2530 71° East 520 598 30,000 1,560 Climbing FlightAware
07:18PM 33.4290 -95.1430 71° East 514 592 31,300 1,740 Climbing FlightAware
07:19PM 33.4620 -95.0300 71° East 512 589 32,400 1,080 Climbing FlightAware
07:20PM 33.5020 -94.8890 71° East 508 585 33,000 360 Climbing FlightAware
07:21PM 33.5300 -94.7900 71° East 508 585 33,000  Level FlightAware
07:21PM 33.5530 -94.7090 71° East 508 585 33,000  Level FlightAware
07:22PM 33.5770 -94.6250 71° East 508 585 33,000  Level FlightAware
07:23PM 33.6090 -94.5140 71° East 508 585 33,000  Level FlightAware
07:23PM 33.6330 -94.4320 71° East 508 585 33,000  Level FlightAware
07:24PM 33.6770 -94.2650 72° East 510 587 33,000  Level FlightAware
07:25PM 33.7090 -94.1550 71° East 510 587 33,000  Level FlightAware
07:25PM 33.7320 -94.0730 71° East 510 587 33,000  Level FlightAware
07:26PM 33.7720 -93.9340 71° East 510 587 33,000  Level FlightAware
07:27PM 33.7960 -93.8490 71° East 510 587 33,000  Level FlightAware
07:28PM 33.8280 -93.7380 71° East 510 587 33,000  Level FlightAware
07:28PM 33.8440 -93.6830 71° East 510 587 33,000  Level FlightAware
07:29PM 33.8750 -93.5730 71° East 510 587 33,000  Level FlightAware
07:30PM 33.9220 -93.4090 71° East 510 587 33,000  Level FlightAware
07:31PM 33.9530 -93.2990 71° East 510 587 33,000  Level FlightAware
07:32PM 33.9770 -93.2170 71° East 510 587 33,000  Level FlightAware
07:32PM 34.0090 -93.1050 71° East 510 587 33,000  Level FlightAware
07:33PM 34.0320 -93.0220 71° East 510 587 33,000  Level FlightAware
07:34PM 34.0653 -92.5811 71° East 509 586 33,000  Level Memphis Center
07:35PM 34.1017 -92.4167 75° East 509 586 33,000  Level Memphis Center
07:36PM 34.1417 -92.2544 73° East 509 586 33,000  Level Memphis Center
07:37PM 34.1858 -92.0897 72° East 509 586 33,000  Level Memphis Center
07:38PM 34.2297 -91.9247 72° East 515 593 33,000  Level Memphis Center
07:39PM 34.2733 -91.7622 72° East 508 585 33,000  Level Memphis Center
07:40PM 34.3125 -91.6194 72° East 503 579 33,000  Level Memphis Center
07:41PM 34.3639 -91.4667 68° East 491 565 33,000  Level Memphis Center
07:42PM 34.4672 -91.3497 43° Northeast 482 555 33,000  Level Memphis Center
07:43PM 34.5828 -91.2325 40° Northeast 482 555 33,000  Level Memphis Center
07:44PM 34.6900 -91.1300 38° Northeast 488 562 33,000  Level Memphis Center
07:45PM 34.8114 -91.0528 28° Northeast 488 562 33,000  Level Memphis Center
07:46PM 34.9392 -90.9828 24° Northeast 488 562 33,000  Level Memphis Center
07:47PM 35.0481 -90.8847 36° Northeast 483 556 33,000  Level Memphis Center
07:48PM 35.1547 -90.7761 40° Northeast 488 562 33,000  Level Memphis Center
07:54PM 35.7640 -90.1360 40° Northeast 502 578 33,000  Level FlightAware
07:55PM 35.8600 -90.0360 40° Northeast 504 580 33,000  Level FlightAware
07:56PM 35.9530 -89.9390 40° Northeast 504 580 33,000  Level FlightAware
07:57PM 36.0440 -89.8450 40° Northeast 504 580 33,000  Level FlightAware
07:57PM 36.0980 -89.7880 40° Northeast 504 580 33,000  Level FlightAware
07:58PM 36.1710 -89.7120 40° Northeast 504 580 33,000  Level FlightAware
07:59PM 36.2970 -89.5710 42° Northeast 509 586 33,000  Level FlightAware
08:00PM 36.4090 -89.4500 41° Northeast 509 586 33,000  Level FlightAware
08:01PM 36.5480 -89.3000 41° Northeast 506 582 33,000  Level FlightAware
08:02PM 36.6060 -89.2360 42° Northeast 506 582 33,000  Level FlightAware
08:03PM 36.6790 -89.1580 41° Northeast 506 582 33,000  Level FlightAware
08:03PM 36.7360 -89.0960 41° Northeast 506 582 33,000  Level FlightAware
08:04PM 36.7870 -89.0410 41° Northeast 506 582 33,000  Level FlightAware
08:05PM 36.9070 -88.9070 42° Northeast 506 582 33,000  Level FlightAware
08:05PM 36.9750 -88.8330 41° Northeast 505 581 33,000  Level FlightAware
08:06PM 37.0520 -88.7480 41° Northeast 505 581 33,000  Level FlightAware
08:07PM 37.1390 -88.6510 42° Northeast 504 580 33,000  Level FlightAware
08:07PM 37.2070 -88.5760 41° Northeast 505 581 33,000  Level FlightAware
08:08PM 37.2670 -88.5080 42° Northeast 506 582 33,000  Level FlightAware
08:09PM 37.3430 -88.4240 41° Northeast 507 583 33,000  Level FlightAware
08:09PM 37.4130 -88.3450 42° Northeast 507 583 33,000  Level FlightAware
08:10PM 37.4750 -88.2760 41° Northeast 507 583 33,000  Level FlightAware
08:11PM 37.5510 -88.1900 42° Northeast 508 585 33,000  Level FlightAware
08:11PM 37.6300 -88.1020 41° Northeast 509 586 33,000  Level FlightAware
08:12PM 37.6870 -88.0100 52° Northeast 519 597 33,000  Level FlightAware
08:13PM 37.7430 -87.8950 58° Northeast 519 597 33,000  Level FlightAware
08:14PM 37.7960 -87.7950 56° Northeast 517 595 33,000  Level FlightAware
08:14PM 37.8480 -87.6780 61° Northeast 522 601 33,000  Level FlightAware
08:15PM 37.8860 -87.5720 66° East 520 598 33,000  Level FlightAware
08:16PM 37.9260 -87.4640 65° Northeast 517 595 33,000  Level FlightAware
08:16PM 37.9730 -87.3400 64° Northeast 518 596 33,000  Level FlightAware
08:17PM 38.0180 -87.2180 65° Northeast 517 595 33,000  Level FlightAware
08:18PM 38.0590 -87.1070 65° Northeast 513 590 33,000  Level FlightAware
08:18PM 38.0980 -86.9990 65° Northeast 513 590 33,000  Level FlightAware
08:19PM 38.1470 -86.8820 62° Northeast 509 586 33,000  Level FlightAware
08:20PM 38.1920 -86.7880 59° Northeast 508 585 33,000  Level FlightAware
08:21PM 38.2520 -86.6660 58° Northeast 510 587 33,000  Level FlightAware
08:21PM 38.2990 -86.5720 57° Northeast 510 587 33,000  Level FlightAware
08:22PM 38.3640 -86.4410 58° Northeast 512 589 33,000  Level FlightAware
08:23PM 38.4200 -86.3270 58° Northeast 513 590 33,000  Level FlightAware
08:23PM 38.4690 -86.2260 58° Northeast 514 592 33,000  Level FlightAware
08:24PM 38.5160 -86.1310 58° Northeast 516 594 33,000  Level FlightAware
08:25PM 38.5680 -86.0240 58° Northeast 517 595 33,000  Level FlightAware
08:25PM 38.6190 -85.9200 58° Northeast 519 597 33,000  Level FlightAware
08:26PM 38.6650 -85.8240 58° Northeast 518 596 33,000  Level FlightAware
08:27PM 38.7250 -85.7000 58° Northeast 515 593 33,000  Level FlightAware
08:27PM 38.7780 -85.5890 58° Northeast 513 590 33,000  Level FlightAware
08:28PM 38.8320 -85.4770 58° Northeast 514 592 33,000  Level FlightAware
08:29PM 38.8770 -85.3830 58° Northeast 514 592 33,000  Level FlightAware
08:30PM 38.9300 -85.2730 58° Northeast 515 593 33,000  Level FlightAware
08:30PM 38.9840 -85.1610 58° Northeast 515 593 33,000  Level FlightAware
08:31PM 39.0220 -85.0810 59° Northeast 515 593 33,000  Level FlightAware
08:32PM 39.0790 -84.9600 59° Northeast 516 594 33,000  Level FlightAware
08:32PM 39.1310 -84.8510 58° Northeast 516 594 33,000  Level FlightAware
08:33PM 39.1970 -84.7060 60° Northeast 518 596 33,000  Level FlightAware
08:34PM 39.2470 -84.5980 59° Northeast 519 597 33,000  Level FlightAware
08:34PM 39.2960 -84.4930 59° Northeast 520 598 33,000  Level FlightAware
08:35PM 39.3510 -84.3740 59° Northeast 521 600 33,000  Level FlightAware
08:36PM 39.3980 -84.2710 59° Northeast 522 601 33,000  Level FlightAware
08:37PM 39.4540 -84.1500 59° Northeast 523 602 33,000  Level FlightAware
08:37PM 39.5040 -84.0400 59° Northeast 524 603 33,000  Level FlightAware
08:38PM 39.5580 -83.9210 59° Northeast 525 604 33,000  Level FlightAware
08:39PM 39.6080 -83.8120 59° Northeast 526 605 33,000  Level FlightAware
08:39PM 39.6590 -83.6990 60° Northeast 528 608 33,000  Level FlightAware
08:40PM 39.7060 -83.5930 60° Northeast 531 611 33,000  Level FlightAware
08:41PM 39.7580 -83.4790 59° Northeast 532 612 33,000  Level FlightAware
08:41PM 39.8080 -83.3670 60° Northeast 535 616 33,000  Level FlightAware
08:42PM 39.8620 -83.2460 60° Northeast 538 619 33,000  Level FlightAware
08:43PM 39.9120 -83.1330 60° Northeast 539 620 33,000  Level FlightAware
08:43PM 39.9650 -83.0210 58° Northeast 542 624 33,000  Level FlightAware
08:44PM 40.0330 -82.9090 52° Northeast 543 625 33,000  Level FlightAware
08:45PM 40.0930 -82.8070 52° Northeast 545 627 33,000  Level FlightAware
08:45PM 40.1490 -82.7100 53° Northeast 548 631 33,000  Level FlightAware
08:46PM 40.2160 -82.5930 53° Northeast 550 633 33,000  Level FlightAware
08:47PM 40.2720 -82.4990 52° Northeast 552 635 33,000  Level FlightAware
08:47PM 40.3360 -82.3930 52° Northeast 554 638 33,000  Level FlightAware
08:48PM 40.3980 -82.2880 52° Northeast 555 639 33,000  Level FlightAware
08:49PM 40.4620 -82.1800 52° Northeast 556 640 33,000  Level FlightAware
08:50PM 40.5310 -82.0640 52° Northeast 558 642 33,000  Level FlightAware
08:50PM 40.6000 -81.9450 53° Northeast 559 643 33,000  Level FlightAware
08:51PM 40.6640 -81.8360 52° Northeast 558 642 33,000  Level FlightAware
08:52PM 40.7320 -81.7190 52° Northeast 557 641 33,000  Level FlightAware
08:52PM 40.7990 -81.6050 52° Northeast 559 643 33,000  Level FlightAware
08:53PM 40.8680 -81.4860 52° Northeast 560 644 33,000  Level FlightAware
08:54PM 40.9300 -81.3780 53° Northeast 556 640 33,000  Level FlightAware
08:54PM 40.9930 -81.2690 53° Northeast 556 640 33,000  Level FlightAware
08:55PM 41.0640 -81.1460 53° Northeast 553 636 33,000  Level FlightAware
08:56PM 41.1250 -81.0380 53° Northeast 552 635 33,000  Level FlightAware
08:56PM 41.1780 -80.9450 53° Northeast 553 636 33,000  Level FlightAware
08:57PM 41.2450 -80.8280 53° Northeast 551 634 33,000  Level FlightAware
08:58PM 41.3080 -80.7160 53° Northeast 551 634 33,000  Level FlightAware
08:59PM 41.3750 -80.6020 52° Northeast 549 632 33,000  Level FlightAware
08:59PM 41.4350 -80.4940 53° Northeast 549 632 33,000  Level FlightAware
09:00PM 41.4920 -80.3890 54° Northeast 550 633 33,000  Level FlightAware
09:01PM 41.5540 -80.2770 53° Northeast 551 634 33,000  Level FlightAware
09:01PM 41.6060 -80.1830 53° Northeast 548 631 33,000  Level FlightAware
09:02PM 41.6670 -80.0740 53° Northeast 548 631 33,000  Level FlightAware
09:03PM 41.7350 -79.9520 53° Northeast 546 628 33,000  Level FlightAware
09:03PM 41.8010 -79.8330 53° Northeast 547 629 33,000  Level FlightAware
09:04PM 41.8610 -79.7230 54° Northeast 547 629 33,000  Level FlightAware
09:05PM 41.9300 -79.5970 54° Northeast 546 628 33,000  Level FlightAware
09:05PM 41.9890 -79.4900 53° Northeast 545 627 33,000  Level FlightAware
09:06PM 42.0380 -79.4000 54° Northeast 543 625 33,000  Level FlightAware
09:07PM 42.1060 -79.2750 54° Northeast 542 624 33,000  Level FlightAware
09:07PM 42.1650 -79.1640 54° Northeast 541 623 33,000  Level FlightAware
09:08PM 42.2100 -79.0600 60° Northeast 540 621 33,000  Level FlightAware
09:09PM 42.2530 -78.9380 65° Northeast 539 620 33,000  Level FlightAware
09:09PM 42.2990 -78.8050 65° Northeast 536 617 33,000  Level FlightAware
09:10PM 42.3370 -78.6960 65° Northeast 536 617 33,000  Level FlightAware
09:11PM 42.3780 -78.5770 65° Northeast 536 617 33,000  Level FlightAware
09:11PM 42.4200 -78.4530 65° Northeast 538 619 33,000  Level FlightAware
09:12PM 42.4670 -78.3190 65° Northeast 541 623 33,000  Level FlightAware
09:13PM 42.5100 -78.1920 65° Northeast 542 624 33,000  Level FlightAware
09:13PM 42.5570 -78.0530 65° Northeast 541 623 33,000  Level FlightAware
09:14PM 42.5980 -77.9320 65° Northeast 539 620 33,000  Level FlightAware
09:15PM 42.6390 -77.8080 66° East 535 616 33,000  Level FlightAware
09:15PM 42.6730 -77.7080 65° Northeast 533 613 33,000  Level FlightAware
09:16PM 42.7200 -77.5650 66° East 532 612 33,000  Level FlightAware
09:17PM 42.7600 -77.4450 66° East 532 612 33,000  Level FlightAware
09:18PM 42.8190 -77.3150 58° Northeast 536 617 33,000  Level FlightAware
09:18PM 42.8740 -77.2050 56° Northeast 536 617 33,000  Level FlightAware
09:19PM 42.9350 -77.0790 56° Northeast 535 616 33,000  Level FlightAware
09:20PM 42.9910 -76.9700 55° Northeast 534 615 33,000  Level FlightAware
09:20PM 43.0500 -76.8590 54° Northeast 538 619 33,000  Level FlightAware
09:21PM 43.1160 -76.7320 55° Northeast 538 619 33,000  Level FlightAware
09:22PM 43.1720 -76.6220 55° Northeast 537 618 33,000  Level FlightAware
09:22PM 43.2310 -76.4990 57° Northeast 535 616 33,000  Level FlightAware
09:23PM 43.2720 -76.3830 64° Northeast 532 612 33,000  Level FlightAware
09:24PM 43.3190 -76.2410 65° Northeast 531 611 33,000  Level FlightAware
09:24PM 43.3580 -76.1160 67° East 534 615 33,000  Level FlightAware
09:25PM 43.3960 -75.9910 67° East 538 619 33,000  Level FlightAware
09:26PM 43.4370 -75.8580 67° East 540 621 33,000  Level FlightAware
09:26PM 43.4720 -75.7460 67° East 540 621 33,000  Level FlightAware
09:27PM 43.5110 -75.6180 67° East 540 621 33,000  Level FlightAware
09:28PM 43.5500 -75.4910 67° East 539 620 33,000  Level FlightAware
09:29PM 43.5920 -75.3530 67° East 540 621 33,000  Level FlightAware
09:29PM 43.6360 -75.2050 68° East 540 621 33,000  Level FlightAware
09:30PM 43.6750 -75.0770 67° East 542 624 33,000  Level FlightAware
09:31PM 43.7120 -74.9500 68° East 543 625 33,000  Level FlightAware
09:31PM 43.7490 -74.8270 67° East 542 624 33,000  Level FlightAware
09:32PM 43.7810 -74.7150 68° East 539 620 33,000  Level FlightAware
09:33PM 43.8240 -74.5700 68° East 538 619 33,000  Level FlightAware
09:33PM 43.8550 -74.4630 68° East 538 619 33,000  Level FlightAware
09:34PM 43.9070 -74.2820 68° East 538 619 33,000  Level FlightAware
09:35PM 43.9440 -74.1540 68° East 538 619 33,000  Level FlightAware
09:36PM 43.9860 -74.0080 68° East 539 620 33,000 600 Level FlightAware
09:36PM 44.0280 -73.8590 69° East 546 628 33,900 1,200 Climbing FlightAware
09:37PM 44.0650 -73.7280 69° East 550 633 34,700 780 Climbing FlightAware
09:38PM 44.1020 -73.5960 69° East 552 635 35,000 240 Climbing FlightAware
09:38PM 44.1350 -73.4800 68° East 553 636 35,000  Level FlightAware
09:39PM 44.1720 -73.3450 69° East 554 638 35,000  Level FlightAware
09:40PM 44.2090 -73.2110 69° East 554 638 35,000  Level FlightAware
09:40PM 44.2470 -73.0750 69° East 553 636 35,000  Level FlightAware
09:41PM 44.2810 -72.9510 69° East 556 640 35,000  Level FlightAware
09:42PM 44.3220 -72.8010 69° East 557 641 35,000  Level FlightAware
09:42PM 44.3580 -72.6650 70° East 555 639 35,000  Level FlightAware
09:43PM 44.3940 -72.5320 69° East 554 638 35,000  Level FlightAware
09:44PM 44.4350 -72.3810 69° East 551 634 35,000  Level FlightAware
09:44PM 44.4740 -72.2320 70° East 552 635 35,000  Level FlightAware
09:45PM 44.5060 -72.1120 69° East 552 635 35,000  Level FlightAware
09:46PM 44.5410 -71.9780 70° East 552 635 35,000  Level FlightAware
09:46PM 44.5800 -71.8300 70° East 555 639 35,000  Level FlightAware
09:47PM 44.6120 -71.7070 70° East 555 639 35,000  Level FlightAware
09:48PM 44.6460 -71.5740 70° East 555 639 35,000  Level FlightAware
09:48PM 44.6830 -71.4320 70° East 553 636 35,000  Level FlightAware
09:49PM 44.7140 -71.3090 70° East 549 632 35,000  Level FlightAware
09:50PM 44.7540 -71.1520 70° East 547 629 35,000  Level FlightAware
09:50PM 44.7880 -71.0170 70° East 544 626 35,000  Level FlightAware
09:51PM 44.8210 -70.8850 71° East 546 628 35,000  Level FlightAware
09:52PM 44.8560 -70.7470 70° East 546 628 35,000  Level FlightAware
09:53PM 44.8970 -70.5830 71° East 546 628 35,000  Level FlightAware
09:53PM 44.9350 -70.4220 72° East 547 629 35,000  Level FlightAware
09:54PM 44.9710 -70.2760 71° East 548 631 35,000  Level FlightAware
09:55PM 45.0110 -70.1130 71° East 548 631 35,000  Level FlightAware
09:56PM 45.0440 -69.9740 71° East 549 632 35,000  Level FlightAware
09:56PM 45.0730 -69.8550 71° East 549 632 35,000  Level FlightAware
09:57PM 45.0990 -69.7480 71° East 549 632 35,000  Level FlightAware
09:58PM 45.1440 -69.5560 72° East 550 633 35,000  Level FlightAware
09:58PM 45.1790 -69.4050 72° East 550 633 35,000  Level FlightAware
09:59PM 45.2080 -69.2810 72° East 549 632 35,000  Level FlightAware
09:59PM 45.2290 -69.1900 72° East 548 631 35,000  Level FlightAware
10:01PM 45.2800 -68.9690 72° East 548 631 35,000  Level FlightAware
10:01PM 45.3110 -68.8350 72° East 549 632 35,000  Level FlightAware
10:02PM 45.3460 -68.6830 72° East 552 635 35,000  Level FlightAware
10:03PM 45.3750 -68.5520 72° East 553 636 35,000  Level FlightAware
10:03PM 45.4110 -68.3920 72° East 555 639 35,000  Level FlightAware
10:04PM 45.4420 -68.2520 72° East 555 639 35,000  Level FlightAware
10:05PM 45.4760 -68.1000 72° East 556 640 35,000  Level FlightAware
10:05PM 45.5030 -67.9750 73° East 557 641 35,000  Level FlightAware
10:06PM 45.5330 -67.8390 72° East 558 642 35,000  Level FlightAware
10:07PM 45.5670 -67.6810 73° East 560 644 35,000  Level FlightAware
10:07PM 45.5980 -67.5370 73° East 558 642 35,000  Level FlightAware
10:08PM 45.6280 -67.3990 73° East 558 642 35,000  Level FlightAware
10:09PM 45.6580 -67.2570 73° East 557 641 35,000  Level FlightAware
10:09PM 45.6920 -67.0940 73° East 557 641 35,000  Level FlightAware
10:10PM 45.7210 -66.9550 73° East 557 641 35,000  Level FlightAware
10:11PM 45.7500 -66.8160 73° East 554 638 35,000  Level FlightAware
10:12PM 45.7820 -66.6600 74° East 549 632 35,000  Level FlightAware
10:12PM 45.8110 -66.5180 74° East 545 627 35,000  Level FlightAware
10:13PM 45.8420 -66.3640 74° East 540 621 35,000  Level FlightAware
10:14PM 45.8700 -66.2250 74° East 540 621 35,000  Level FlightAware
10:14PM 45.9010 -66.0720 74° East 540 621 35,000  Level FlightAware
10:15PM 45.9220 -65.9670 74° East 540 621 35,000  Level FlightAware
10:16PM 45.9520 -65.8160 74° East 540 621 35,000  Level FlightAware
10:16PM 45.9770 -65.6880 74° East 541 623 35,000  Level FlightAware
10:17PM 46.0050 -65.5410 75° East 541 623 35,000  Level FlightAware
10:18PM 46.0370 -65.3790 74° East 540 621 35,000  Level FlightAware
10:19PM 46.0650 -65.2370 74° East 540 621 35,000  Level FlightAware
10:19PM 46.0880 -65.1260 73° East 540 621 35,000  Level FlightAware
10:20PM 46.1090 -65.0200 74° East 540 621 35,000  Level FlightAware
10:21PM 46.1370 -64.8780 74° East 540 621 35,000  Level FlightAware
10:21PM 46.1580 -64.7720 74° East 540 621 35,000  Level FlightAware
10:22PM 46.1860 -64.6310 74° East 540 621 35,000  Level FlightAware
10:23PM 46.2060 -64.5300 74° East 540 621 35,000  Level FlightAware
10:23PM 46.2340 -64.3890 74° East 540 621 35,000  Level FlightAware
10:24PM 46.2550 -64.2830 74° East 540 621 35,000  Level FlightAware
10:25PM 46.2760 -64.1730 75° East 540 621 35,000  Level FlightAware
10:26PM 46.3120 -63.9930 74° East 540 621 35,000  Level FlightAware
10:26PM 46.3330 -63.8870 74° East 540 621 35,000  Level FlightAware
10:27PM 46.2750 -63.4460 101° East 534 615 35,000  Level FlightAware
10:28PM 46.2840 -63.3210 84° East 534 615 35,000  Level FlightAware
10:28PM 46.2970 -63.1480 84° East 535 616 35,000  Level FlightAware
10:29PM 46.3150 -63.0070 79° East 534 615 35,000  Level FlightAware
10:30PM 46.3390 -62.8590 77° East 533 613 35,000  Level FlightAware
10:30PM 46.3620 -62.7130 77° East 533 613 35,000  Level FlightAware
10:31PM 46.3850 -62.5600 78° East 533 613 35,000  Level FlightAware
10:32PM 46.4070 -62.4160 77° East 533 613 35,000  Level FlightAware
10:32PM 46.4290 -62.2740 77° East 534 615 35,000  Level FlightAware
10:33PM 46.4520 -62.1210 78° East 534 615 35,000  Level FlightAware
10:34PM 46.4730 -61.9800 78° East 534 615 35,000  Level FlightAware
10:35PM 46.4950 -61.8260 78° East 534 615 35,000  Level FlightAware
10:35PM 46.5120 -61.7110 78° East 535 616 35,000  Level FlightAware
10:36PM 46.5340 -61.5580 78° East 535 616 35,000  Level FlightAware
10:37PM 46.5540 -61.4190 78° East 535 616 35,000  Level FlightAware
10:37PM 46.5720 -61.2920 78° East 537 618 35,000  Level FlightAware
10:38PM 46.5940 -61.1360 78° East 538 619 35,000  Level FlightAware
10:39PM 46.6140 -60.9930 78° East 539 620 35,000  Level FlightAware
10:39PM 46.6360 -60.8360 78° East 540 621 35,000  Level FlightAware
10:40PM 46.6550 -60.6930 79° East 540 621 35,000  Level FlightAware
10:41PM 46.6750 -60.5500 78° East 540 621 35,000  Level FlightAware
10:41PM 46.6960 -60.3920 79° East 541 623 35,000  Level FlightAware
10:42PM 46.7120 -60.2680 79° East 542 624 35,000  Level FlightAware
10:43PM 46.7310 -60.1230 79° East 542 624 35,000  Level FlightAware
10:43PM 46.7500 -59.9780 79° East 542 624 35,000  Level FlightAware
10:44PM 46.7710 -59.8150 79° East 542 624 35,000  Level FlightAware
10:45PM 46.7890 -59.6720 80° East 542 624 35,000  Level FlightAware
10:45PM 46.8090 -59.5110 80° East 544 626 35,000  Level FlightAware
10:46PM 46.8270 -59.3660 80° East 544 626 35,000  Level FlightAware
10:47PM 46.8430 -59.2390 80° East 546 628 35,000  Level FlightAware
10:47PM 46.8610 -59.0880 80° East 546 628 35,000  Level FlightAware
10:48PM 46.8810 -58.9260 80° East 545 627 35,000  Level FlightAware
10:49PM 46.8960 -58.7950 80° East 544 626 35,000  Level FlightAware
10:49PM 46.9130 -58.6530 80° East 544 626 35,000  Level FlightAware
10:50PM 46.9300 -58.5050 80° East 544 626 35,000  Level FlightAware
10:51PM 46.9470 -58.3620 80° East 545 627 35,000  Level FlightAware
10:52PM 46.9690 -58.1680 80° East 545 627 35,000  Level FlightAware
10:52PM 46.9860 -58.0160 81° East 545 627 35,000  Level FlightAware
10:53PM 47.0050 -57.8400 81° East 544 626 35,000  Level FlightAware
10:54PM 47.0190 -57.7130 81° East 544 626 35,000  Level FlightAware
10:54PM 47.0360 -57.5670 80° East 543 625 35,000  Level FlightAware
10:55PM 47.0560 -57.4220 79° East 541 623 35,000  Level FlightAware
10:56PM 47.0770 -57.2820 78° East 542 624 35,000  Level FlightAware
10:57PM 47.1040 -57.1130 77° East 544 626 35,000  Level FlightAware
10:57PM 47.1300 -56.9480 77° East 546 628 35,000  Level FlightAware
10:58PM 47.1530 -56.8080 76° East 546 628 35,000  Level FlightAware
10:59PM 47.1770 -56.6520 77° East 547 629 35,000  Level FlightAware
10:59PM 47.2010 -56.5020 77° East 546 628 35,000  Level FlightAware
11:00PM 47.2250 -56.3470 77° East 545 627 35,000  Level FlightAware
11:01PM 47.2500 -56.1790 78° East 544 626 35,000  Level FlightAware
11:02PM 47.2710 -56.0390 77° East 542 624 35,000  Level FlightAware
11:02PM 47.2920 -55.8970 78° East 541 623 35,000  Level FlightAware
11:03PM 47.3160 -55.7360 78° East 543 625 35,000  Level FlightAware
11:04PM 47.3400 -55.5670 78° East 544 626 35,000  Level FlightAware
11:04PM 47.3610 -55.4230 78° East 547 629 35,000  Level FlightAware
11:05PM 47.3790 -55.2960 78° East 549 632 35,000  Level FlightAware
11:06PM 47.4030 -55.1290 78° East 550 633 35,000  Level FlightAware
11:06PM 47.4230 -54.9850 78° East 552 635 35,000  Level FlightAware
11:07PM 47.4440 -54.8350 78° East 553 636 35,000  Level FlightAware
11:08PM 47.4640 -54.6890 78° East 552 635 35,000  Level FlightAware
11:08PM 47.4860 -54.5260 79° East 551 634 35,000  Level FlightAware
11:09PM 47.5060 -54.3740 79° East 551 634 35,000  Level FlightAware
11:10PM 47.5260 -54.2290 78° East 551 634 35,000  Level FlightAware
11:10PM 47.5460 -54.0780 79° East 550 633 35,000  Level FlightAware
11:11PM 47.5640 -53.9340 79° East 551 634 35,000  Level FlightAware
11:12PM 47.5830 -53.7840 79° East 551 634 35,000 -120 Level FlightAware
11:12PM 47.6000 -53.6530 79° East 553 636 34,900 -780 Descending FlightAware
11:13PM 47.6210 -53.4850 79° East 558 642 34,000 -660 Descending FlightAware
11:14PM 47.6400 -53.3360 79° East 554 638 34,000  Level FlightAware
11:15PM 47.6600 -53.1680 80° East 561 646 34,000  Level FlightAware
11:15PM 47.6780 -53.0210 80° East 564 649 34,000  Level FlightAware
11:16PM 47.6970 -52.8630 80° East 566 651 34,000  Level FlightAware
11:17PM 47.7170 -52.6950 80° East 568 654 34,000  Level FlightAware
11:17PM 47.7330 -52.5580 80° East 568 654 34,000  Level FlightAware
11:18PM 47.7510 -52.4060 80° East 568 654 34,000  Level FlightAware
11:19PM 47.7680 -52.2520 81° East 566 651 34,000  Level FlightAware
11:19PM 47.7860 -52.0970 80° East 568 654 34,000  Level FlightAware
11:20PM 47.8020 -51.9440 81° East 570 656 34,000  Level FlightAware
11:21PM 47.8210 -51.7800 80° East 572 658 34,000  Level FlightAware
11:21PM 47.8370 -51.6270 81° East 574 661 34,000  Level FlightAware
11:22PM 47.8560 -51.4480 81° East 573 659 34,000  Level FlightAware
11:23PM 47.8720 -51.2930 81° East 574 661 34,000  Level FlightAware
11:23PM 47.8910 -51.1170 81° East 575 662 34,000  Level FlightAware
11:24PM 47.9030 -51.0000 81° East 576 663 34,000  Level FlightAware
11:25PM 47.9200 -50.8350 81° East 576 663 34,000  Level FlightAware
11:25PM 47.9330 -50.7150 81° East 576 663 34,000  Level FlightAware
11:26PM 47.9550 -50.4780 82° East 577 664 34,000  Level FlightAware
11:27PM 47.9680 -50.3570 81° East 577 664 34,000  Level FlightAware
11:28PM 47.9860 -50.1930 81° East 577 664 34,000  Level FlightAware
11:28PM 47.9980 -50.0730 81° East 577 664 34,000  Level FlightAware
11:29PM 48.0110 -49.9520 81° East 577 664 34,000  Level FlightAware
11:30PM 48.0280 -49.7910 81° East 577 664 34,000  Level FlightAware
11:30PM 48.0410 -49.6700 81° East 577 664 34,000  Level FlightAware
11:31PM 48.0540 -49.5500 81° East 577 664 34,000  Level FlightAware
11:32PM 48.0710 -49.3890 81° East 577 664 34,000  Level FlightAware
11:32PM 48.0830 -49.2680 82° East 577 664 34,000  Level FlightAware
11:33PM 48.1000 -49.1070 81° East 577 664 34,000  Level FlightAware
11:34PM 48.1130 -48.9860 81° East 577 664 34,000  Level FlightAware
11:35PM 48.1340 -48.7850 81° East 577 664 34,000  Level FlightAware
11:35PM 48.1470 -48.6640 81° East 577 664 34,000  Level FlightAware
11:38PM 48.2823 -48.2177 65° Northeast  Level Estimated
11:39PM 48.3405 -48.0229 66° East  Level Estimated
11:40PM 48.3985 -47.8277 66° East  Level Estimated
11:41PM 48.4561 -47.6320 66° East  Level Estimated
11:42PM 48.5134 -47.4359 66° East  Level Estimated
11:43PM 48.5703 -47.2394 66° East  Level Estimated
11:44PM 48.6269 -47.0424 66° East  Level Estimated
11:45PM 48.6832 -46.8449 67° East  Level Estimated
11:46PM 48.7391 -46.6470 67° East  Level Estimated
11:47PM 48.7947 -46.4487 67° East  Level Estimated
11:48PM 48.8499 -46.2500 67° East  Level Estimated
11:49PM 48.9049 -46.0508 67° East  Level Estimated
11:50PM 48.9594 -45.8512 67° East  Level Estimated
11:51PM 49.0136 -45.6511 67° East  Level Estimated
11:52PM 49.0675 -45.4506 68° East  Level Estimated
11:53PM 49.1210 -45.2496 68° East  Level Estimated
11:54PM 49.1742 -45.0483 68° East  Level Estimated
11:55PM 49.2270 -44.8465 68° East  Level Estimated
11:56PM 49.2795 -44.6442 68° East  Level Estimated
11:57PM 49.3316 -44.4416 68° East  Level Estimated
11:58PM 49.3834 -44.2385 69° East  Level Estimated
11:59PM 49.4348 -44.0350 69° East  Level Estimated
12:00AM 49.4859 -43.8310 69° East  Level Estimated
12:01AM 49.5365 -43.6267 69° East  Level Estimated
12:02AM 49.5869 -43.4219 69° East  Level Estimated
12:03AM 49.6368 -43.2167 69° East  Level Estimated
12:04AM 49.6864 -43.0111 69° East  Level Estimated
12:05AM 49.7357 -42.8050 70° East  Level Estimated
12:06AM 49.7845 -42.5985 70° East  Level Estimated
12:07AM 49.8331 -42.3917 70° East  Level Estimated
12:08AM 49.8812 -42.1844 70° East  Level Estimated
12:09AM 49.9290 -41.9767 70° East  Level Estimated
12:10AM 49.9764 -41.7685 70° East  Level Estimated
12:11AM 50.0233 -41.5604 71° East  Level Estimated
12:12AM 50.0698 -41.3519 71° East  Level Estimated
12:13AM 50.1160 -41.1430 71° East  Level Estimated
12:14AM 50.1618 -40.9337 71° East  Level Estimated
12:15AM 50.2072 -40.7240 71° East  Level Estimated
12:16AM 50.2523 -40.5139 71° East  Level Estimated
12:17AM 50.2970 -40.3033 72° East  Level Estimated
12:18AM 50.3413 -40.0924 72° East  Level Estimated
12:19AM 50.3852 -39.8811 72° East  Level Estimated
12:20AM 50.4287 -39.6695 72° East  Level Estimated
12:21AM 50.4718 -39.4574 72° East  Level Estimated
12:22AM 50.5146 -39.2449 72° East  Level Estimated
12:23AM 50.5569 -39.0321 73° East  Level Estimated
12:24AM 50.5989 -38.8189 73° East  Level Estimated
12:25AM 50.6405 -38.6053 73° East  Level Estimated
12:26AM 50.6817 -38.3913 73° East  Level Estimated
12:27AM 50.7225 -38.1769 73° East  Level Estimated
12:28AM 50.7629 -37.9622 73° East  Level Estimated
12:29AM 50.8030 -37.7471 74° East  Level Estimated
12:30AM 50.8426 -37.5317 74° East  Level Estimated
12:31AM 50.8818 -37.3158 74° East  Level Estimated
12:32AM 50.9206 -37.0996 74° East  Level Estimated
12:33AM 50.9590 -36.8831 74° East  Level Estimated
12:34AM 50.9971 -36.6662 74° East  Level Estimated
12:35AM 51.0347 -36.4489 75° East  Level Estimated
12:36AM 51.0719 -36.2313 75° East  Level Estimated
12:37AM 51.1087 -36.0134 75° East  Level Estimated
12:38AM 51.1451 -35.7951 75° East  Level Estimated
12:39AM 51.1811 -35.5764 75° East  Level Estimated
12:40AM 51.2167 -35.3574 75° East  Level Estimated
12:41AM 51.2519 -35.1381 76° East  Level Estimated
12:42AM 51.2867 -34.9184 76° East  Level Estimated
12:43AM 51.3210 -34.6984 76° East  Level Estimated
12:44AM 51.3550 -34.4781 76° East  Level Estimated
12:45AM 51.3885 -34.2575 76° East  Level Estimated
12:46AM 51.4216 -34.0365 76° East  Level Estimated
12:47AM 51.4543 -33.8153 77° East  Level Estimated
12:48AM 51.4866 -33.5937 77° East  Level Estimated
12:49AM 51.5185 -33.3717 77° East  Level Estimated
12:50AM 51.5499 -33.1495 77° East  Level Estimated
12:51AM 51.5809 -32.9270 77° East  Level Estimated
12:52AM 51.6115 -32.7042 77° East  Level Estimated
12:53AM 51.6417 -32.4811 78° East  Level Estimated
12:54AM 51.6715 -32.2576 78° East  Level Estimated
12:55AM 51.7008 -32.0339 78° East  Level Estimated
12:56AM 51.7297 -31.8099 78° East  Level Estimated
12:57AM 51.7582 -31.5856 78° East  Level Estimated
12:58AM 51.7864 -31.3597 78° East  Level Estimated
12:59AM 51.8142 -31.1335 79° East  Level Estimated
01:00AM 51.8416 -30.9070 79° East  Level Estimated
01:01AM 51.8685 -30.6803 79° East  Level Estimated
01:02AM 51.8950 -30.4533 79° East  Level Estimated
01:03AM 51.9211 -30.2260 79° East  Level Estimated
01:04AM 51.9467 -29.9984 80° East  Level Estimated
01:05AM 51.9718 -29.7706 80° East  Level Estimated
01:06AM 51.9966 -29.5426 80° East  Level Estimated
01:07AM 52.0209 -29.3143 80° East  Level Estimated
01:08AM 52.0447 -29.0857 80° East  Level Estimated
01:09AM 52.0681 -28.8569 80° East  Level Estimated
01:10AM 52.0911 -28.6278 81° East  Level Estimated
01:11AM 52.1136 -28.3986 81° East  Level Estimated
01:12AM 52.1357 -28.1691 81° East  Level Estimated
01:13AM 52.1573 -27.9394 81° East  Level Estimated
01:14AM 52.1785 -27.7094 81° East  Level Estimated
01:15AM 52.1992 -27.4792 82° East  Level Estimated
01:16AM 52.2195 -27.2489 82° East  Level Estimated
01:17AM 52.2393 -27.0183 82° East  Level Estimated
01:18AM 52.2587 -26.7875 82° East  Level Estimated
01:19AM 52.2777 -26.5565 82° East  Level Estimated
01:20AM 52.2961 -26.3253 82° East  Level Estimated
01:21AM 52.3142 -26.0939 83° East  Level Estimated
01:22AM 52.3317 -25.8624 83° East  Level Estimated
01:23AM 52.3489 -25.6306 83° East  Level Estimated
01:24AM 52.3656 -25.3987 83° East  Level Estimated
01:25AM 52.3818 -25.1666 83° East  Level Estimated
01:26AM 52.3975 -24.9344 84° East  Level Estimated
01:27AM 52.4128 -24.7020 84° East  Level Estimated
01:28AM 52.4277 -24.4694 84° East  Level Estimated
01:29AM 52.4421 -24.2366 84° East  Level Estimated
01:30AM 52.4560 -24.0037 84° East  Level Estimated
01:31AM 52.4695 -23.7707 84° East  Level Estimated
01:32AM 52.4825 -23.5375 85° East  Level Estimated
01:33AM 52.4951 -23.3047 85° East  Level Estimated
01:34AM 52.5071 -23.0717 85° East  Level Estimated
01:35AM 52.5188 -22.8386 85° East  Level Estimated
01:36AM 52.5299 -22.6054 85° East  Level Estimated
01:37AM 52.5406 -22.3721 86° East  Level Estimated
01:38AM 52.5509 -22.1387 86° East  Level Estimated
01:39AM 52.5607 -21.9051 86° East  Level Estimated
01:40AM 52.5700 -21.6714 86° East  Level Estimated
01:41AM 52.5789 -21.4377 86° East  Level Estimated
01:42AM 52.5873 -21.2039 87° East  Level Estimated
01:43AM 52.5952 -20.9699 87° East  Level Estimated
01:44AM 52.6027 -20.7359 87° East  Level Estimated
01:45AM 52.6098 -20.5018 87° East  Level Estimated
01:46AM 52.6163 -20.2677 87° East  Level Estimated
01:47AM 52.6224 -20.0334 87° East  Level Estimated
01:48AM 52.6281 -19.7992 88° East  Level Estimated
01:49AM 52.6333 -19.5648 88° East  Level Estimated
01:50AM 52.6380 -19.3304 88° East  Level Estimated
01:51AM 52.6422 -19.0959 88° East  Level Estimated
01:52AM 52.6460 -18.8615 88° East  Level Estimated
01:53AM 52.6493 -18.6269 89° East  Level Estimated
01:54AM 52.6522 -18.3924 89° East  Level Estimated
01:55AM 52.6546 -18.1578 89° East  Level Estimated
01:56AM 52.6565 -17.9232 89° East  Level Estimated
01:57AM 52.6580 -17.6885 89° East  Level Estimated
01:58AM 52.6590 -17.4539 89° East  Level Estimated
01:59AM 52.6596 -17.2188 90° East  Level Estimated
02:00AM 52.6597 -16.9836 90° East  Level Estimated
02:01AM 52.6593 -16.7485 90° East  Level Estimated
02:02AM 52.6584 -16.5134 90° East  Level Estimated
02:03AM 52.6571 -16.2782 90° East  Level Estimated
02:04AM 52.6553 -16.0431 91° East  Level Estimated
02:04AM 51.2670 -12.4700 91° East 516 594 36,000  Level FlightAware
02:05AM 52.6531 -15.8081 91° East  Level Estimated
02:05AM 51.2840 -12.3110 80° East 516 594 36,000  Level FlightAware
02:06AM 51.3010 -12.1570 80° East 516 594 36,000  Level FlightAware
02:06AM 51.3240 -11.9550 80° East 36,000  Level FlightAware
02:07AM 51.3470 -11.7330 80° East 512 589 36,000  Level FlightAware
02:08AM 51.3590 -11.6180 80° East 512 589 36,000  Level FlightAware
02:09AM 51.3740 -11.4650 81° East 512 589 36,000  Level FlightAware
02:09AM 51.3850 -11.3510 81° East 512 589 36,000  Level FlightAware
02:10AM 51.4120 -11.1190 79° East 503 579 36,000  Level FlightAware
02:11AM 51.4300 -10.9400 81° East 503 579 36,000  Level FlightAware
02:12AM 51.4500 -10.7430 81° East 503 579 36,000  Level FlightAware
02:12AM 51.4610 -10.6270 81° East 501 577 36,000  Level FlightAware
02:14AM 51.4880 -10.3450 81° East 500 575 36,000  Level FlightAware
02:14AM 51.5020 -10.1930 82° East 497 572 36,000  Level FlightAware
02:15AM 51.5170 -10.0340 81° East 496 571 36,000  Level FlightAware
02:16AM 51.5330 -9.8590 82° East 496 571 36,000  Level FlightAware
02:17AM 51.5490 -9.6840 82° East 496 571 36,000  Level FlightAware
02:17AM 51.5630 -9.5160 82° East 494 568 36,000  Level FlightAware
02:18AM 51.5760 -9.3700 82° East 493 567 36,000  Level FlightAware
02:19AM 51.5880 -9.2300 82° East 493 567 36,000  Level FlightAware
02:20AM 51.6050 -9.0290 82° East 491 565 36,000  Level FlightAware
02:20AM 51.6170 -8.8790 82° East 490 564 36,000 -180 Level FlightAware
02:20AM 51.6176 -8.8678 82° East 492 566 35,900  Descending FlightAware UK
02:21AM 51.6262 -8.7598 82° East 486 559 36,000 120 Climbing FlightAware UK
02:21AM 51.6280 -8.7380 82° East 488 562 36,000  Level FlightAware
02:22AM 51.6410 -8.5750 83° East 488 562 36,000  Level FlightAware
02:22AM 51.6533 -8.4145 83° East 490 564 36,000  Level FlightAware UK
02:22AM 51.6540 -8.4160 83° East 487 560 36,000  Level FlightAware
02:23AM 51.6618 -8.3065 83° East 488 562 36,000  Level FlightAware UK
02:23AM 51.6630 -8.2940 83° East 487 560 36,000  Level FlightAware
02:24AM 51.6760 -8.1300 83° East 488 562 36,000  Level FlightAware
02:24AM 51.6873 -7.9811 83° East 488 562 36,000  Level FlightAware UK
02:24AM 51.6860 -7.9900 83° East 488 562 36,000  Level FlightAware
02:25AM 51.6980 -7.8200 83° East 489 563 36,000 -360 Level FlightAware
02:26AM 51.7106 -7.6564 83° East 490 564 35,500 -720 Descending FlightAware UK
02:26AM 51.7100 -7.6610 83° East 487 560 35,500 -840 Level FlightAware
02:26AM 51.7183 -7.5486 83° East 488 562 35,100 -780 Descending FlightAware UK
02:27AM 51.7200 -7.5170 83° East 481 554 35,000 -780 Descending FlightAware
02:27AM 51.7310 -7.3620 83° East 476 548 34,400 -780 Descending FlightAware
02:28AM 51.7381 -7.2321 83° East 494 568 34,000 -600 Descending FlightAware UK
02:28AM 51.7430 -7.1830 83° East 463 533 33,900 -900 Descending FlightAware
02:29AM 51.7525 -7.0275 83° East 484 557 33,100 -900 Descending FlightAware UK
02:29AM 51.7560 -6.9820 83° East 457 526 33,000 -120 Descending FlightAware
02:30AM 51.7650 -6.8370 84° East 458 527 33,000 -120 Level FlightAware
02:30AM 51.7721 -6.7227 84° East 486 559 32,900  Descending FlightAware UK
02:31AM 51.7750 -6.6870 84° East 455 524 33,000 120 Climbing FlightAware
02:31AM 51.7800 -6.5790 86° East 451 519 33,000  Level FlightAware
02:32AM 51.7770 -6.4320 92° East 446 513 33,000  Level FlightAware
02:32AM 51.7727 -6.3219 92° East 484 557 33,000  Level FlightAware UK
02:33AM 51.7720 -6.2990 92° East 448 516 33,000  Level FlightAware
02:33AM 51.7670 -6.1920 94° East 448 516 33,000  Level FlightAware
02:34AM 51.7610 -6.0440 94° East 412 474 33,000  Level FlightAware
02:34AM 51.7569 -5.9410 94° East 426 490 33,000  Level FlightAware UK
02:35AM 51.7560 -5.9190 94° East 384 442 33,000  Level FlightAware
02:35AM 51.7510 -5.8070 94° East 378 435 33,000  Level FlightAware
02:36AM 51.7452 -5.6882 94° East 414 476 33,000  Level FlightAware UK
02:36AM 51.7450 -5.6840 94° East 377 434 33,000  Level FlightAware
02:37AM 51.7400 -5.5690 94° East 377 434 33,000  Level FlightAware
02:37AM 51.7350 -5.4570 94° East 379 436 33,000  Level FlightAware
02:38AM 51.7310 -5.3570 94° East 379 436 33,000  Level FlightAware
02:38AM 51.7306 -5.3511 94° East 416 479 33,000  Level FlightAware UK
02:38AM 51.7268 -5.2666 94° East 416 479 33,000  Level FlightAware UK
02:39AM 51.7250 -5.2300 94° East 380 437 33,000  Level FlightAware
02:39AM 51.7200 -5.1120 94° East 381 438 33,000  Level FlightAware
02:40AM 51.7160 -5.0200 94° East 382 440 33,000  Level FlightAware
02:40AM 51.7160 -5.0114 94° East 416 479 33,000  Level FlightAware UK
02:40AM 51.7124 -4.9262 94° East 414 476 33,000  Level FlightAware UK
02:41AM 51.7110 -4.8950 94° East 384 442 33,000  Level FlightAware
02:41AM 51.7060 -4.7780 94° East 385 443 33,000  Level FlightAware
02:42AM 51.7020 -4.6790 94° East 387 445 33,000  Level FlightAware
02:43AM 51.6960 -4.5590 95° East 387 445 33,000  Level FlightAware
02:43AM 51.6900 -4.4330 94° East 388 447 33,000  Level FlightAware
02:44AM 51.6854 -4.3407 94° East 418 481 33,000  Level FlightAware UK
02:44AM 51.6840 -4.3190 94° East 386 444 33,000  Level FlightAware
02:45AM 51.6780 -4.2040 95° East 385 443 33,000 -300 Level FlightAware
02:45AM 51.6720 -4.0790 94° East 381 438 32,600 -960 Descending FlightAware
02:46AM 51.6663 -3.9661 94° East 406 467 31,700 -1,380 Descending FlightAware UK
02:46AM 51.6660 -3.9560 94° East 377 434 31,600 -1,500 Descending FlightAware
02:47AM 51.6616 -3.8661 94° East 400 460 30,800 -1,380 Descending FlightAware UK
02:47AM 51.6610 -3.8550 94° East 374 430 30,800 -1,380 Level FlightAware
02:47AM 51.6560 -3.7440 94° East 371 427 29,800 -1,380 Descending FlightAware
02:48AM 51.6500 -3.6360 95° East 367 422 29,000 -1,320 Descending FlightAware
02:49AM 51.6440 -3.5290 95° East 366 421 28,100 -1,500 Descending FlightAware
02:49AM 51.6435 -3.5217 95° East 386 444 28,000 -1,440 Descending FlightAware UK
02:49AM 51.6354 -3.4095 95° East 382 440 27,100 -1,260 Descending FlightAware UK
02:49AM 51.6350 -3.4050 95° East 358 412 27,100 -180 Level FlightAware
02:50AM 51.6200 -3.2910 102° East 359 413 27,000 -300 Descending FlightAware
02:51AM 51.6130 -3.2355 101° East 358 412 26,800 -900 Descending FlightAware ADS-B
02:51AM 51.6002 -3.1460 103° East 357 411 26,200 -960 Descending FlightAware ADS-B
02:52AM 51.5872 -3.0534 103° East 355 409 25,700 -840 Descending FlightAware ADS-B
02:52AM 51.5743 -2.9589 103° East 370 426 25,200 -840 Descending FlightAware UK
02:52AM 51.5722 -2.9429 103° East 352 405 25,100 -960 Descending FlightAware ADS-B
02:53AM 51.5556 -2.8239 103° East 352 405 24,400 -900 Descending FlightAware ADS-B
02:54AM 51.5447 -2.7463 103° East 350 403 24,000 -960 Descending FlightAware ADS-B
02:54AM 51.5322 -2.6575 103° East 349 402 23,400 -960 Descending FlightAware ADS-B
02:55AM 51.5187 -2.5625 103° East 348 400 22,900 -840 Descending FlightAware ADS-B
02:55AM 51.5079 -2.4869 103° East 346 398 22,500 -720 Descending FlightAware ADS-B
02:56AM 51.4966 -2.4088 103° East 344 396 22,200 -720 Descending FlightAware ADS-B
02:56AM 51.4858 -2.3571 109° East 338 389 21,900 -720 Descending FlightAware ADS-B
02:57AM 51.4678 -2.2852 112° Southeast 334 384 21,600 -780 Descending FlightAware ADS-B
02:57AM 51.4504 -2.2169 112° Southeast 331 381 21,100 -1,320 Descending FlightAware ADS-B
02:58AM 51.4327 -2.1476 112° Southeast 328 377 20,300 -1,560 Descending FlightAware ADS-B
02:58AM 51.4218 -2.1028 111° Southeast 328 377 19,800 -1,560 Descending FlightAware ADS-B
02:59AM 51.4083 -2.0299 107° East 328 377 19,000 -1,800 Descending FlightAware ADS-B
02:59AM 51.3961 -1.9609 106° East 308 354 18,000 -2,820 Descending FlightAware ADS-B
03:00AM 51.3848 -1.8957 105° East 315 362 16,200 -2,700 Descending FlightAware ADS-B
03:00AM 51.3728 -1.8276 106° East 309 356 15,300 -1,500 Descending FlightAware ADS-B
03:01AM 51.3659 -1.7901 106° East 310 357 15,000 -420 Descending FlightAware ADS-B
03:01AM 51.3514 -1.7233 109° East 304 350 15,000  Level FlightAware ADS-B
03:02AM 51.3384 -1.6632 109° East 305 351 15,000  Level FlightAware ADS-B
03:02AM 51.3318 -1.5951 99° East 313 360 15,000  Level FlightAware ADS-B
03:03AM 51.3273 -1.5252 96° East 314 361 15,000  Level FlightAware ADS-B
03:03AM 51.3227 -1.4553 96° East 316 364 15,000  Level FlightAware ADS-B
03:04AM 51.3181 -1.3850 96° East 318 366 15,000  Level FlightAware ADS-B
03:04AM 51.3134 -1.3131 96° East 317 365 15,000 -120 Level FlightAware ADS-B
03:05AM 51.3089 -1.2428 96° East 315 362 14,900 -600 Descending FlightAware ADS-B
03:05AM 51.3043 -1.1733 96° East 314 361 14,400 -1,080 Descending FlightAware ADS-B
03:05AM 51.3019 -1.1364 96° East 312 359 14,100 -540 Descending FlightAware ADS-B
03:06AM 51.2949 -1.0667 99° East 309 356 14,000 -120 Descending FlightAware ADS-B
03:06AM 51.2893 -0.9984 97° East 309 356 14,000  Level FlightAware ADS-B
03:07AM 51.2842 -0.9301 97° East 308 354 14,000 -240 Level FlightAware ADS-B
03:07AM 51.2790 -0.8615 97° East 308 354 13,800 -780 Descending FlightAware ADS-B
03:08AM 51.2747 -0.8047 97° East 306 352 13,300 -1,140 Descending FlightAware ADS-B
03:08AM 51.2743 -0.7909 93° East 309 356 13,200 -1,140 Descending FlightAware ADS-B
03:08AM 51.2748 -0.7778 86° East 312 359 13,100 -360 Descending FlightAware ADS-B
03:09AM 51.2819 -0.7104 80° East 293 337 13,000 -300 Descending FlightAware ADS-B
03:09AM 51.2880 -0.6483 81° East 280 322 12,800 -840 Descending FlightAware ADS-B
03:10AM 51.2934 -0.5880 82° East 278 320 12,200 -780 Descending FlightAware ADS-B
03:10AM 51.2988 -0.5233 82° East 278 320 12,000 -240 Descending FlightAware ADS-B
03:11AM 51.3040 -0.4592 83° East 278 320 12,000 -180 Level FlightAware ADS-B
03:11AM 51.3048 -0.4282 88° East 273 314 11,900 -840 Descending FlightAware ADS-B
03:11AM 51.3040 -0.3679 91° East 273 314 11,400 -1,020 Descending FlightAware ADS-B
03:12AM 51.3036 -0.3208 91° East 271 312 11,000 -840 Descending FlightAware ADS-B
03:12AM 51.3027 -0.3083 97° East 271 312 11,000 -720 Level FlightAware ADS-B
03:12AM 51.2980 -0.2895 112° Southeast 265 305 10,800 -960 Descending FlightAware ADS-B
03:12AM 51.2923 -0.2780 128° Southeast 258 297 10,700 -1,140 Descending FlightAware ADS-B
03:12AM 51.2897 -0.2743 138° Southeast 255 293 10,600 -1,020 Descending FlightAware ADS-B
03:12AM 51.2867 -0.2708 144° Southeast 253 291 10,600 -780 Level FlightAware ADS-B
03:12AM 51.2815 -0.2666 153° Southeast 249 287 10,500 -1,380 Descending FlightAware ADS-B
03:12AM 51.2776 -0.2644 161° South 245 282 10,400 -1,500 Descending FlightAware ADS-B
03:12AM 51.2728 -0.2632 171° South 242 278 10,300 -1,020 Descending FlightAware ADS-B
03:13AM 51.2644 -0.2636 182° South 239 275 10,200 -1,020 Descending FlightAware ADS-B
03:13AM 51.2543 -0.2698 201° Southwest 236 272 10,000 -1,500 Descending FlightAware ADS-B
03:13AM 51.2493 -0.2760 218° Southwest 237 273 9,800 -1,680 Descending FlightAware ADS-B
03:13AM 51.2455 -0.2828 229° Southwest 238 274 9,700 -1,380 Descending FlightAware ADS-B
03:13AM 51.2430 -0.2898 240° Southwest 239 275 9,600 -1,500 Descending FlightAware ADS-B
03:13AM 51.2402 -0.3025 251° West 244 281 9,400 -1,500 Descending FlightAware ADS-B
03:13AM 51.2397 -0.3110 265° West 248 285 9,300 -780 Descending FlightAware ADS-B
03:13AM 51.2398 -0.3176 271° West 252 290 9,300 -1,380 Level FlightAware ADS-B
03:13AM 51.2409 -0.3274 280° West 257 296 9,100 -1,380 Descending FlightAware ADS-B
03:13AM 51.2425 -0.3345 290° West 262 302 9,100 -780 Level FlightAware ADS-B
03:13AM 51.2448 -0.3416 297° West 267 307 9,000 -780 Descending FlightAware ADS-B
03:14AM 51.2478 -0.3487 304° West 272 313 9,000 -780 Level FlightAware ADS-B
03:14AM 51.2507 -0.3539 311° West 275 316 8,900 -1,740 Descending FlightAware ADS-B
03:14AM 51.2535 -0.3581 317° Northwest 278 320 8,800 -1,740 Descending FlightAware ADS-B
03:14AM 51.2577 -0.3634 322° Northwest 285 328 8,700 -1,380 Descending FlightAware ADS-B
03:14AM 51.2633 -0.3683 331° Northwest 291 335 8,600 -1,380 Descending FlightAware ADS-B
03:14AM 51.2685 -0.3716 338° Northwest 292 336 8,500 -1,500 Descending FlightAware ADS-B
03:14AM 51.2733 -0.3736 345° North 294 338 8,400 -900 Descending FlightAware ADS-B
03:14AM 51.2780 -0.3749 350° North 294 338 8,400 -960 Level FlightAware ADS-B
03:14AM 51.2903 -0.3764 356° North 293 337 8,200 -960 Descending FlightAware ADS-B
03:14AM 51.3106 -0.3775 358° North 291 335 8,000 -780 Descending FlightAware ADS-B
03:15AM 51.3323 -0.3787 358° North 286 329 7,800 -840 Descending FlightAware ADS-B
03:15AM 51.3491 -0.3798 358° North 284 327 7,600 -960 Descending FlightAware ADS-B
03:15AM 51.3647 -0.3801 359° North 285 328 7,400 -1,140 Descending FlightAware ADS-B
03:15AM 51.3708 -0.3786 North 284 327 7,300 -1,380 Descending FlightAware ADS-B
03:15AM 51.3767 -0.3757 17° North 280 322 7,200 -1,020 Descending FlightAware ADS-B
03:15AM 51.3848 -0.3690 27° Northeast 275 316 7,100 -480 Descending FlightAware ADS-B
03:15AM 51.3906 -0.3616 39° Northeast 268 308 7,100 -600 Level FlightAware ADS-B
03:16AM 51.3938 -0.3559 48° Northeast 265 305 7,000 -600 Descending FlightAware ADS-B
03:16AM 51.3975 -0.3464 58° Northeast 262 302 7,000  Level FlightAware ADS-B
03:16AM 51.3991 -0.3408 65° Northeast 259 298 7,000  Level FlightAware ADS-B
03:16AM 51.4002 -0.3354 72° East 258 297 7,000  Level FlightAware ADS-B
03:16AM 51.4011 -0.3282 79° East 255 293 7,000  Level FlightAware ADS-B
03:16AM 51.4014 -0.3198 87° East 252 290 7,000  Level FlightAware ADS-B
03:16AM 51.4010 -0.3118 95° East 249 287 7,000  Level FlightAware ADS-B
03:16AM 51.4000 -0.3046 102° East 246 283 7,000  Level FlightAware ADS-B
03:16AM 51.3991 -0.2994 106° East 245 282 7,000  Level FlightAware ADS-B
03:16AM 51.3933 -0.2735 110° East 242 278 7,000 -420 Level FlightAware ADS-B
03:17AM 51.3872 -0.2483 111° Southeast 240 276 6,800 -600 Descending FlightAware ADS-B
03:17AM 51.3811 -0.2237 112° Southeast 240 276 6,700 -480 Descending FlightAware ADS-B
03:17AM 51.3763 -0.2038 111° Southeast 240 276 6,600 -360 Descending FlightAware ADS-B
03:17AM 51.3749 -0.1945 103° East 242 278 6,600 -600 Level FlightAware ADS-B
03:17AM 51.3743 -0.1865 97° East 245 282 6,500 -600 Descending FlightAware ADS-B
03:17AM 51.3744 -0.1774 89° East 248 285 6,500 -540 Level FlightAware ADS-B
03:17AM 51.3752 -0.1628 85° East 251 289 6,400 -540 Descending FlightAware ADS-B
03:18AM 51.3776 -0.1346 82° East 250 288 6,300 -420 Descending FlightAware ADS-B
03:18AM 51.3802 -0.1065 82° East 249 287 6,200 -600 Descending FlightAware ADS-B
03:18AM 51.3828 -0.0787 81° East 246 283 6,000 -600 Descending FlightAware ADS-B
03:18AM 51.3854 -0.0509 81° East 236 272 5,900 -420 Descending FlightAware ADS-B
03:19AM 51.3880 -0.0229 82° East 226 260 5,800 -600 Descending FlightAware ADS-B
03:19AM 51.3906 0.0024 81° East 218 251 5,600 -660 Descending FlightAware ADS-B
03:19AM 51.3914 0.0073 75° East 215 247 5,600 -780 Level FlightAware ADS-B
03:19AM 51.3933 0.0143 66° East 215 247 5,500 -720 Descending FlightAware ADS-B
03:19AM 51.3955 0.0198 57° Northeast 215 247 5,500  Level FlightAware ADS-B
03:19AM 51.3995 0.0264 46° Northeast 214 246 5,500 -420 Level FlightAware ADS-B
03:19AM 51.4077 0.0336 29° Northeast 215 247 5,400 -420 Descending FlightAware ADS-B
03:20AM 51.4131 0.0353 11° North 216 249 5,400 -600 Level FlightAware ADS-B
03:20AM 51.4182 0.0353 360° North 215 247 5,300 -420 Descending FlightAware ADS-B
03:20AM 51.4278 0.0305 343° North 216 249 5,300 -420 Level FlightAware ADS-B
03:20AM 51.4321 0.0258 326° Northwest 215 247 5,200 -600 Descending FlightAware ADS-B
03:20AM 51.4357 0.0199 315° West 214 246 5,200  Level FlightAware ADS-B
03:20AM 51.4378 0.0153 306° West 213 245 5,200  Level FlightAware ADS-B
03:20AM 51.4402 0.0095 304° West 213 245 5,200 -300 Level FlightAware ADS-B
03:20AM 51.4485 -0.0122 301° West 214 246 5,100 -600 Descending FlightAware ADS-B
03:21AM 51.4565 -0.0333 301° West 212 244 4,900 -600 Descending FlightAware ADS-B
03:21AM 51.4591 -0.0408 299° West 211 243 4,900  Level FlightAware ADS-B
03:21AM 51.4602 -0.0451 293° West 210 242 4,900 -780 Level FlightAware ADS-B
03:21AM 51.4620 -0.0524 291° West 209 241 4,800 -780 Descending FlightAware ADS-B
03:21AM 51.4629 -0.0572 287° West 207 238 4,800 -720 Level FlightAware ADS-B
03:21AM 51.4641 -0.0664 282° West 205 236 4,700 -600 Descending FlightAware ADS-B
03:21AM 51.4645 -0.0719 277° West 205 236 4,700 -780 Level FlightAware ADS-B
03:21AM 51.4648 -0.0773 275° West 205 236 4,600 -1,140 Descending FlightAware ADS-B
03:21AM 51.4651 -0.0887 272° West 202 232 4,500 -840 Descending FlightAware ADS-B
03:22AM 51.4654 -0.1122 271° West 199 229 4,300 -960 Descending FlightAware ADS-B
03:22AM 51.4655 -0.1373 270° West 199 229 4,000 -1,080 Descending FlightAware ADS-B
03:22AM 51.4655 -0.1625 270° West 200 230 3,700 -1,080 Descending FlightAware ADS-B
03:22AM 51.4654 -0.1778 269° West 203 234 3,500 -1,380 Descending FlightAware ADS-B
03:23AM 51.4654 -0.2022 270° West 207 238 3,100 -1,500 Descending FlightAware ADS-B
03:23AM 51.4654 -0.2284 270° West 212 244 2,700 -1,440 Descending FlightAware ADS-B
03:23AM 51.4650 -0.2860 269° West 199 229 1,800 -1,320 Descending FlightAware
03:24AM 51.4652 -0.3336 269° West 162 186 1,200 -960 Descending FlightAware UK
03:24AM 51.4650 -0.3500 269° West 182 209 1,100 -840 Descending FlightAware
03:25AM 51.4650 -0.3890 270° West 174 200 600 -900 Descending FlightAware
03:25AM 51.4650 -0.4260 270° West 167 192 200 -840 Descending FlightAware
03:26AM 51.4650 -0.4380 270° West 166 191 -600 Descending FlightAware
03:26AM 51.4650 -0.4670 270° West 166 191  Level FlightAware